カラチ の空港の天気 - METARとTAF

ジンナー国際空港(カラチ) ( OPKC / KHI ) - パキスタン Karachi
飛行場実況気象(Metar)
観測時間03/29 01:55 PKT (03/28 20:55 UTC)
風向・風速西 4m/s
視程6000m
天気現象
なし
気温26℃
湿度61%
気圧1010hPa
METAROPKC 282055Z 26007KT 6000 NSC 26/18 Q1010 NOSIG
過去の天気等 Google飛行場航空写真 Wunderground天気予報

過去48時間のMETAR

飛行場予報(TAF)
発表時間: 3/28 21:00 PKT (3/28 16:00 UTC)
予報対象時間: 28日23時 PKT ~ 30日5時 PKT
風向・風速西 3m/s 瞬間風速 8m/s
視程6,000m
なし
29日5時 PKT ~ 29日9時 PKT に一時的に
風向・風速西 5m/s
視程5,000m
天気現象煙霧
なし
29日10時 PKT から
風向・風速西南西 5m/s 瞬間風速 10m/s
視程6,000m
なし
29日23時 PKT ~ 30日1時 PKT に徐々に
風向・風速西 3m/s 瞬間風速 8m/s
視程6,000m
全天の4割程度の雲 雲底高度 910m
TAF OPKC 281600Z 2818/2924 26005G15KT 6000 NSC
TEMPO 2900/2904 27010KT 5000 HZ NSC
FM290500 25010G20KT 6000 NSC
BECMG 2918/2920 27005G15KT 6000 SCT030